Rising Sun, Indiana
Current Conditions -  °F | °C
As of 10:52 AM on Thursday 18 Dec 2014 (Local Time) from KCVG Reporting Station
Overcast Overcast  
Wind Chill: 28°   Ceiling: 2000
Heat Index: 28°   Visibility: 9mi
Dew Point: 18°   Wind: 0mph
Humidity: 66%   Direction: NA
Pressure: 30.26"   Gusts: NA
Location:  38.95°N, 84.85°W
Report Text: KCVG 181552Z 00000KT 9SM OVC020 M02/M08 A3026 RMK AO2 SLP255 T10221078
Loading
Personal Weather Stations






























Interactive Weather Map New forecast layout! Learn more

10-Day Weather Forecast

Advertisements
Track Severe Weather on mobile